Time;durP1;ratioP1;P1;durP2;ratioP2;P2;SDS_P1;SDS_P2;PMS_P1;PMS_P2;Temp;Humidity;BMP_temperature;BMP_pressure;BME280_temperature;BME280_humidity;BME280_pressure;Samples;Min_cycle;Max_cycle;Signal;HPM_P1;HPM_P2
2022/04/27 00:01:23;;;;;;;11.85;9.43;;;;;;;;;;5040209;27;90044;-80
2022/04/27 00:03:50;;;;;;;12.90;9.55;;;;;;;;;;5037464;27;90006;-81
2022/04/27 00:06:16;;;;;;;13.18;9.50;;;;;;;;;;5041515;27;88784;-80
2022/04/27 00:08:43;;;;;;;9.50;8.60;;;;;;;;;;5037418;28;88821;-80
2022/04/27 00:11:09;;;;;;;17.73;9.63;;;;;;;;;;5037376;27;89530;-80
2022/04/27 00:13:36;;;;;;;10.93;9.82;;;;;;;;;;5035608;27;90162;-80
2022/04/27 00:16:02;;;;;;;11.25;9.63;;;;;;;;;;5037418;27;89142;-80
2022/04/27 00:18:29;;;;;;;12.23;10.02;;;;;;;;;;5036528;28;88525;-79
2022/04/27 00:20:55;;;;;;;13.50;10.20;;;;;;;;;;5035667;27;89714;-82
2022/04/27 00:23:25;;;;;;;11.05;9.98;;;;;;;;;;5046723;27;91173;-81
2022/04/27 00:25:51;;;;;;;12.52;10.07;;;;;;;;;;5051569;27;90215;-80
2022/04/27 00:28:17;;;;;;;13.02;9.68;;;;;;;;;;5053959;27;90828;-80
2022/04/27 00:30:44;;;;;;;12.52;9.57;;;;;;;;;;5037554;28;89648;-80
2022/04/27 00:33:11;;;;;;;10.00;9.00;;;;;;;;;;5037131;27;88775;-80
2022/04/27 00:35:37;;;;;;;12.98;9.30;;;;;;;;;;5018276;28;88169;-81
2022/04/27 00:38:04;;;;;;;13.52;9.40;;;;;;;;;;5035935;27;89429;-80
2022/04/27 00:40:30;;;;;;;10.50;9.50;;;;;;;;;;5036670;27;88011;-80
2022/04/27 00:42:57;;;;;;;13.23;10.43;;;;;;;;;;5054381;27;88693;-80
2022/04/27 00:45:23;;;;;;;12.45;10.25;;;;;;;;;;5056301;27;89063;-80
2022/04/27 00:47:50;;;;;;;20.95;9.75;;;;;;;;;;5053937;27;90966;-80
2022/04/27 00:50:16;;;;;;;11.23;10.05;;;;;;;;;;5057251;27;88217;-80
2022/04/27 00:52:43;;;;;;;19.08;10.02;;;;;;;;;;5040708;27;89658;-80
2022/04/27 00:55:10;;;;;;;12.57;10.25;;;;;;;;;;5018044;28;91137;-80
2022/04/27 00:57:39;;;;;;;13.23;10.20;;;;;;;;;;5035681;27;92737;-80
2022/04/27 01:00:07;;;;;;;11.40;10.30;;;;;;;;;;5018039;28;91753;-80
2022/04/27 01:02:34;;;;;;;12.70;10.68;;;;;;;;;;5016721;28;92897;-80
2022/04/27 01:05:03;;;;;;;12.25;10.95;;;;;;;;;;5020587;27;91468;-80
2022/04/27 01:07:29;;;;;;;13.57;10.48;;;;;;;;;;5017681;28;93480;-81
2022/04/27 01:09:56;;;;;;;13.93;9.95;;;;;;;;;;5053242;27;89558;-80
2022/04/27 01:12:22;;;;;;;12.60;9.77;;;;;;;;;;5036746;27;88691;-80
2022/04/27 01:15:02;;;;;;;13.88;10.18;;;;;;;;;;5017826;28;88833;-80
2022/04/27 01:17:28;;;;;;;12.57;9.73;;;;;;;;;;5025798;28;90359;-80
2022/04/27 01:19:55;;;;;;;11.48;10.32;;;;;;;;;;5018279;28;89818;-80
2022/04/27 01:22:22;;;;;;;15.80;10.13;;;;;;;;;;5054546;27;90393;-80
2022/04/27 01:24:50;;;;;;;11.60;10.50;;;;;;;;;;5018925;28;92086;-80
2022/04/27 01:27:17;;;;;;;13.57;10.05;;;;;;;;;;5019905;28;91360;-80
2022/04/27 01:29:43;;;;;;;13.63;10.50;;;;;;;;;;5036104;27;90259;-80
2022/04/27 01:32:10;;;;;;;13.07;10.30;;;;;;;;;;5034807;28;89530;-80
2022/04/27 01:34:37;;;;;;;16.52;10.93;;;;;;;;;;5051817;27;92419;-80
2022/04/27 01:39:49;;;;;;;12.95;10.23;;;;;;;;;;5035861;28;89292;-80
2022/04/27 01:42:17;;;;;;;10.75;9.10;;;;;;;;;;5035321;27;91046;-80
2022/04/27 01:44:43;;;;;;;11.70;10.40;;;;;;;;;;5020913;28;90968;-80
2022/04/27 01:47:10;;;;;;;11.80;9.27;;;;;;;;;;5017233;28;89935;-80
2022/04/27 01:49:36;;;;;;;14.98;11.07;;;;;;;;;;5038576;28;88518;-80
2022/04/27 01:54:47;;;;;;;11.15;9.98;;;;;;;;;;5040673;27;90845;-80
2022/04/27 01:57:14;;;;;;;13.40;9.50;;;;;;;;;;5032662;27;90314;-80
2022/04/27 01:59:41;;;;;;;13.60;9.65;;;;;;;;;;5021016;28;91234;-80
2022/04/27 02:02:09;;;;;;;14.13;9.68;;;;;;;;;;5021170;28;89836;-80
2022/04/27 02:04:40;;;;;;;17.50;11.43;;;;;;;;;;5021275;28;91136;-80
2022/04/27 02:07:08;;;;;;;11.30;10.23;;;;;;;;;;5019335;28;90980;-80
2022/04/27 02:09:36;;;;;;;11.77;10.25;;;;;;;;;;5020675;28;90183;-80
2022/04/27 02:12:03;;;;;;;11.05;10.02;;;;;;;;;;5023660;28;90864;-80
2022/04/27 02:14:31;;;;;;;16.95;10.85;;;;;;;;;;5019428;28;91952;-80
2022/04/27 02:16:58;;;;;;;12.90;9.93;;;;;;;;;;5020232;27;91323;-80
2022/04/27 02:19:25;;;;;;;12.60;10.70;;;;;;;;;;5019836;27;88836;-80
2022/04/27 02:21:51;;;;;;;15.50;10.60;;;;;;;;;;5020251;28;90797;-80
2022/04/27 02:24:18;;;;;;;12.00;10.25;;;;;;;;;;5019815;27;91629;-80
2022/04/27 02:26:44;;;;;;;11.43;9.88;;;;;;;;;;5019238;27;91326;-80
2022/04/27 02:29:11;;;;;;;12.73;10.48;;;;;;;;;;5037984;28;90097;-80
2022/04/27 02:31:38;;;;;;;13.98;10.13;;;;;;;;;;5036785;28;89631;-80
2022/04/27 02:34:05;;;;;;;14.23;9.90;;;;;;;;;;5041068;27;89007;-80
2022/04/27 02:36:32;;;;;;;11.75;9.73;;;;;;;;;;5021073;28;89820;-80
2022/04/27 02:38:59;;;;;;;13.30;9.73;;;;;;;;;;5025772;28;90126;-80
2022/04/27 02:41:29;;;;;;;11.77;8.90;;;;;;;;;;5053447;27;89159;-80
2022/04/27 02:43:56;;;;;;;10.95;9.70;;;;;;;;;;5039547;27;91818;-80
2022/04/27 02:46:22;;;;;;;16.35;10.95;;;;;;;;;;5020356;28;90891;-80
2022/04/27 02:51:51;;;;;;;11.32;9.48;;;;;;;;;;5039810;27;90296;-80
2022/04/27 02:54:41;;;;;;;10.75;9.68;;;;;;;;;;5032296;28;88496;-80
2022/04/27 02:57:08;;;;;;;18.02;9.55;;;;;;;;;;5020548;27;91008;-80
2022/04/27 02:59:34;;;;;;;12.80;10.75;;;;;;;;;;5020959;28;89430;-80
2022/04/27 03:02:00;;;;;;;14.57;9.57;;;;;;;;;;5019273;27;91332;-80
2022/04/27 03:04:27;;;;;;;11.55;10.15;;;;;;;;;;5019963;28;91163;-79
2022/04/27 03:06:54;;;;;;;9.95;9.05;;;;;;;;;;5019556;28;91252;-80
2022/04/27 03:09:21;;;;;;;10.70;9.43;;;;;;;;;;5029708;27;89886;-80
2022/04/27 03:11:48;;;;;;;11.13;9.98;;;;;;;;;;5044762;27;88651;-80
2022/04/27 03:14:36;;;;;;;10.63;9.00;;;;;;;;;;5037570;28;90890;-80
2022/04/27 03:17:04;;;;;;;15.38;10.15;;;;;;;;;;5022768;28;92881;-80
2022/04/27 03:19:30;;;;;;;14.07;10.50;;;;;;;;;;5018224;28;91162;-80
2022/04/27 03:21:57;;;;;;;16.80;9.18;;;;;;;;;;5018880;28;92451;-80
2022/04/27 03:24:25;;;;;;;9.82;8.93;;;;;;;;;;5019860;28;91145;-80
2022/04/27 03:26:56;;;;;;;11.77;9.33;;;;;;;;;;5019909;28;91457;-79
2022/04/27 03:29:24;;;;;;;9.80;8.88;;;;;;;;;;5019979;28;89627;-80
2022/04/27 03:31:56;;;;;;;16.53;10.20;;;;;;;;;;5019857;27;90645;-79
2022/04/27 03:34:23;;;;;;;18.17;9.70;;;;;;;;;;5021533;28;90828;-80
2022/04/27 03:36:51;;;;;;;14.45;11.27;;;;;;;;;;5029391;27;90939;-80
2022/04/27 03:39:20;;;;;;;14.52;9.45;;;;;;;;;;5029075;28;90842;-80
2022/04/27 03:42:08;;;;;;;10.93;9.60;;;;;;;;;;5020079;28;92288;-80
2022/04/27 03:44:34;;;;;;;9.52;8.68;;;;;;;;;;5019481;28;88366;-80
2022/04/27 03:47:02;;;;;;;11.43;9.93;;;;;;;;;;5026100;27;95838;-80
2022/04/27 03:49:32;;;;;;;10.57;8.88;;;;;;;;;;5017231;28;91757;-80
2022/04/27 03:51:58;;;;;;;14.23;9.00;;;;;;;;;;5015628;28;94393;-80
2022/04/27 03:54:25;;;;;;;9.43;8.57;;;;;;;;;;5016677;28;95640;-80
2022/04/27 03:56:51;;;;;;;10.30;9.27;;;;;;;;;;5033374;27;94803;-80
2022/04/27 03:59:18;;;;;;;11.75;9.48;;;;;;;;;;5016023;28;97313;-80
2022/04/27 04:01:44;;;;;;;12.63;8.25;;;;;;;;;;5019346;28;95689;-80
2022/04/27 04:04:14;;;;;;;9.77;8.52;;;;;;;;;;5033531;28;94059;-79
2022/04/27 04:06:40;;;;;;;10.13;9.13;;;;;;;;;;5016287;28;95404;-80
2022/04/27 04:09:07;;;;;;;10.23;9.32;;;;;;;;;;5016818;28;95028;-80
2022/04/27 04:11:33;;;;;;;10.82;9.45;;;;;;;;;;5015928;28;96084;-80
2022/04/27 04:14:22;;;;;;;12.80;9.02;;;;;;;;;;5034757;28;93838;-80
2022/04/27 04:16:52;;;;;;;9.70;8.68;;;;;;;;;;5025254;27;92470;-80
2022/04/27 04:19:35;;;;;;;10.07;9.18;;;;;;;;;;5031936;28;95517;-80
2022/04/27 04:22:36;;;;;;;9.73;8.75;;;;;;;;;;4972925;28;95567;-79
2022/04/27 04:30:49;;;;;;;11.57;8.90;;;;;;;;;;5012170;28;92748;-79
2022/04/27 04:33:38;;;;;;;10.00;8.68;;;;;;;;;;5012268;28;95868;-79
2022/04/27 04:36:05;;;;;;;9.63;8.73;;;;;;;;;;5029283;27;95361;-79
2022/04/27 04:38:32;;;;;;;12.00;8.95;;;;;;;;;;5015980;28;92514;-79
2022/04/27 04:41:03;;;;;;;11.00;9.25;;;;;;;;;;5019566;28;94725;-79
2022/04/27 04:43:37;;;;;;;9.32;8.43;;;;;;;;;;5032569;28;95171;-79
2022/04/27 04:46:04;;;;;;;10.98;9.77;;;;;;;;;;5022417;28;92614;-80
2022/04/27 04:48:49;;;;;;;9.45;8.55;;;;;;;;;;5013450;28;95096;-79
2022/04/27 04:51:34;;;;;;;10.88;9.77;;;;;;;;;;5013035;28;92590;-79
2022/04/27 04:54:20;;;;;;;11.75;9.35;;;;;;;;;;5013851;28;92940;-79
2022/04/27 04:56:55;;;;;;;11.45;9.57;;;;;;;;;;5011627;28;94758;-79
2022/04/27 04:59:37;;;;;;;9.90;9.00;;;;;;;;;;5012092;28;92508;-79
2022/04/27 05:02:09;;;;;;;10.98;9.35;;;;;;;;;;5028832;27;92894;-79
2022/04/27 05:04:51;;;;;;;10.95;8.32;;;;;;;;;;5012210;28;95551;-79
2022/04/27 05:07:33;;;;;;;9.40;8.38;;;;;;;;;;5030111;28;91868;-79
2022/04/27 05:10:20;;;;;;;10.45;8.70;;;;;;;;;;5015350;28;94051;-80
2022/04/27 05:13:01;;;;;;;12.23;8.60;;;;;;;;;;5012494;28;92483;-79
2022/04/27 05:15:50;;;;;;;10.13;7.88;;;;;;;;;;5019501;28;94971;-79
2022/04/27 05:18:33;;;;;;;10.35;8.82;;;;;;;;;;5026066;28;95678;-79
2022/04/27 05:21:14;;;;;;;12.23;9.05;;;;;;;;;;5015498;28;92838;-79
2022/04/27 05:24:15;;;;;;;10.13;9.10;;;;;;;;;;5019051;27;92602;-79
2022/04/27 05:27:00;;;;;;;11.65;8.77;;;;;;;;;;5032319;28;92695;-79
2022/04/27 05:32:42;;;;;;;17.58;8.75;;;;;;;;;;5032998;28;92965;-79
2022/04/27 05:35:41;;;;;;;10.15;9.25;;;;;;;;;;5027468;28;92099;-79
2022/04/27 05:38:32;;;;;;;11.15;8.50;;;;;;;;;;5018550;27;93530;-79
2022/04/27 05:41:11;;;;;;;10.45;8.15;;;;;;;;;;5033553;27;95283;-79
2022/04/27 05:43:55;;;;;;;9.75;8.57;;;;;;;;;;5043025;27;94832;-79
2022/04/27 05:46:30;;;;;;;12.60;9.38;;;;;;;;;;5014900;28;97106;-79
2022/04/27 05:49:26;;;;;;;13.05;9.65;;;;;;;;;;5018882;27;93618;-79
2022/04/27 05:52:05;;;;;;;12.73;9.50;;;;;;;;;;5032082;27;92524;-79
2022/04/27 05:54:42;;;;;;;11.00;9.32;;;;;;;;;;5019747;28;95833;-79
2022/04/27 05:57:27;;;;;;;9.95;8.95;;;;;;;;;;5030486;28;92706;-80
2022/04/27 06:00:09;;;;;;;12.20;9.47;;;;;;;;;;5024728;27;92526;-79
2022/04/27 06:02:44;;;;;;;15.35;9.85;;;;;;;;;;5015150;28;94945;-79
2022/04/27 06:05:13;;;;;;;16.98;10.63;;;;;;;;;;5031343;27;92679;-79
2022/04/27 06:07:41;;;;;;;15.27;10.50;;;;;;;;;;5030917;27;92905;-79
2022/04/27 06:10:11;;;;;;;20.63;10.75;;;;;;;;;;5014658;27;95797;-79
2022/04/27 06:12:43;;;;;;;16.80;10.68;;;;;;;;;;5033499;27;92967;-79
2022/04/27 06:15:29;;;;;;;11.63;10.07;;;;;;;;;;5032461;27;92480;-80
2022/04/27 06:17:58;;;;;;;14.07;11.32;;;;;;;;;;5014047;28;95403;-80
2022/04/27 06:20:24;;;;;;;15.43;10.85;;;;;;;;;;5015550;27;92570;-80
2022/04/27 06:22:51;;;;;;;12.90;10.45;;;;;;;;;;5017116;28;93077;-81
2022/04/27 06:25:19;;;;;;;13.50;10.43;;;;;;;;;;5014393;27;93160;-80
2022/04/27 06:27:48;;;;;;;12.65;8.95;;;;;;;;;;5014365;28;95448;-80
2022/04/27 06:30:15;;;;;;;13.00;9.32;;;;;;;;;;5014648;27;93125;-80
2022/04/27 06:32:43;;;;;;;9.65;8.50;;;;;;;;;;5032603;27;92462;-81
2022/04/27 06:35:13;;;;;;;15.32;8.80;;;;;;;;;;5033364;27;94943;-79
2022/04/27 06:37:41;;;;;;;10.13;9.13;;;;;;;;;;5019535;27;95655;-78
2022/04/27 06:40:09;;;;;;;8.55;7.45;;;;;;;;;;5021927;27;92705;-79
2022/04/27 06:42:36;;;;;;;13.68;8.32;;;;;;;;;;5032586;28;93973;-79
2022/04/27 06:45:21;;;;;;;13.88;7.30;;;;;;;;;;5043348;27;93075;-78
2022/04/27 06:48:06;;;;;;;10.30;6.65;;;;;;;;;;5046598;27;93517;-78
2022/04/27 06:50:51;;;;;;;9.70;7.00;;;;;;;;;;5038968;27;93256;-76
2022/04/27 06:53:36;;;;;;;7.55;6.07;;;;;;;;;;5053294;27;91713;-78
2022/04/27 06:56:22;;;;;;;9.20;6.30;;;;;;;;;;5063643;27;92510;-78
2022/04/27 06:59:13;;;;;;;8.55;6.53;;;;;;;;;;5030416;27;93379;-78
2022/04/27 07:01:42;;;;;;;7.35;5.38;;;;;;;;;;5037599;27;95849;-78
2022/04/27 07:04:11;;;;;;;11.43;6.10;;;;;;;;;;5037599;27;96148;-78
2022/04/27 07:06:38;;;;;;;7.95;6.03;;;;;;;;;;5044104;27;96283;-78
2022/04/27 07:09:06;;;;;;;12.65;5.85;;;;;;;;;;5051107;27;93669;-78
2022/04/27 07:11:32;;;;;;;10.02;5.78;;;;;;;;;;5042198;27;93249;-78
2022/04/27 07:13:58;;;;;;;6.68;4.68;;;;;;;;;;5040666;27;93058;-79
2022/04/27 07:16:25;;;;;;;8.98;5.32;;;;;;;;;;5054510;27;93156;-78
2022/04/27 07:18:53;;;;;;;8.68;4.35;;;;;;;;;;5050888;27;93638;-78
2022/04/27 07:21:20;;;;;;;8.95;4.50;;;;;;;;;;5049566;27;93241;-78
2022/04/27 07:23:46;;;;;;;6.45;4.03;;;;;;;;;;5039164;27;94865;-78
2022/04/27 07:26:13;;;;;;;5.22;3.42;;;;;;;;;;5033768;28;97011;-79
2022/04/27 07:28:41;;;;;;;9.25;3.30;;;;;;;;;;5039127;27;92590;-78
2022/04/27 07:31:08;;;;;;;7.30;3.35;;;;;;;;;;5034375;27;93484;-79
2022/04/27 07:33:34;;;;;;;8.65;3.78;;;;;;;;;;5036384;27;93770;-79
2022/04/27 07:36:01;;;;;;;3.90;3.10;;;;;;;;;;5034365;27;93152;-78
2022/04/27 07:38:27;;;;;;;5.85;2.63;;;;;;;;;;5036769;27;93084;-78
2022/04/27 07:40:53;;;;;;;2.97;2.65;;;;;;;;;;5030116;27;94618;-77
2022/04/27 07:43:20;;;;;;;8.80;3.17;;;;;;;;;;5033356;27;93897;-78
2022/04/27 07:45:46;;;;;;;3.72;2.67;;;;;;;;;;5033961;27;94581;-78
2022/04/27 07:48:12;;;;;;;5.70;3.13;;;;;;;;;;5035229;28;92460;-78
2022/04/27 07:50:40;;;;;;;7.63;3.33;;;;;;;;;;5034651;27;94808;-78
2022/04/27 07:53:07;;;;;;;5.10;3.47;;;;;;;;;;5034805;28;92507;-78
2022/04/27 07:55:33;;;;;;;4.63;2.33;;;;;;;;;;5034460;28;93308;-78
2022/04/27 07:57:59;;;;;;;8.02;3.40;;;;;;;;;;5033812;28;93390;-78
2022/04/27 08:00:26;;;;;;;6.07;3.25;;;;;;;;;;5035563;27;93502;-78
2022/04/27 08:02:53;;;;;;;6.88;3.42;;;;;;;;;;5037579;27;93838;-78
2022/04/27 08:05:19;;;;;;;6.15;3.40;;;;;;;;;;5033709;27;93466;-78
2022/04/27 08:07:46;;;;;;;9.00;3.22;;;;;;;;;;5035049;28;91721;-78
2022/04/27 08:10:21;;;;;;;6.18;3.33;;;;;;;;;;5034710;28;93532;-78
2022/04/27 08:12:49;;;;;;;11.75;3.20;;;;;;;;;;5036373;28;92479;-78
2022/04/27 08:15:16;;;;;;;7.20;2.63;;;;;;;;;;5033307;28;94834;-78
2022/04/27 08:17:56;;;;;;;8.13;2.42;;;;;;;;;;5047283;27;93789;-78
2022/04/27 08:23:09;;;;;;;4.47;2.50;;;;;;;;;;5055070;27;93913;-78
2022/04/27 08:25:42;;;;;;;6.45;2.60;;;;;;;;;;5039547;27;94172;-78
2022/04/27 08:28:08;;;;;;;4.88;2.55;;;;;;;;;;5034092;28;92491;-77
2022/04/27 08:30:35;;;;;;;5.93;1.80;;;;;;;;;;5034563;28;93959;-78
2022/04/27 08:33:03;;;;;;;2.72;1.98;;;;;;;;;;5033998;28;93498;-78
2022/04/27 08:35:31;;;;;;;4.72;2.40;;;;;;;;;;5039826;27;92505;-78
2022/04/27 08:38:01;;;;;;;2.72;2.20;;;;;;;;;;5044442;27;92588;-78
2022/04/27 08:40:27;;;;;;;4.53;2.58;;;;;;;;;;5031271;28;94976;-78
2022/04/27 08:42:54;;;;;;;5.05;2.20;;;;;;;;;;5034016;28;95647;-78
2022/04/27 08:45:21;;;;;;;5.85;2.40;;;;;;;;;;5034161;28;94194;-79
2022/04/27 08:47:48;;;;;;;5.60;2.55;;;;;;;;;;5033562;28;92410;-79
2022/04/27 08:50:16;;;;;;;4.13;2.25;;;;;;;;;;5034357;28;94018;-77
2022/04/27 08:52:43;;;;;;;4.30;2.47;;;;;;;;;;5033993;28;94140;-76
2022/04/27 08:55:10;;;;;;;10.07;2.58;;;;;;;;;;5033480;28;92485;-76
2022/04/27 08:57:37;;;;;;;5.22;2.63;;;;;;;;;;5037431;28;93822;-76
2022/04/27 09:00:05;;;;;;;2.63;1.98;;;;;;;;;;5033541;28;92570;-77
2022/04/27 09:02:31;;;;;;;5.38;2.15;;;;;;;;;;5032144;28;93805;-77
2022/04/27 09:05:05;;;;;;;4.57;2.00;;;;;;;;;;5032426;28;95925;-77
2022/04/27 09:07:44;;;;;;;9.10;2.40;;;;;;;;;;5039517;27;92459;-77
2022/04/27 09:10:11;;;;;;;5.00;2.00;;;;;;;;;;5054327;27;94170;-78
2022/04/27 09:12:43;;;;;;;3.55;2.30;;;;;;;;;;5053447;27;94883;-78
2022/04/27 09:15:10;;;;;;;5.63;1.92;;;;;;;;;;5053749;27;92387;-77
2022/04/27 09:23:41;;;;;;;6.80;2.25;;;;;;;;;;5035825;27;95709;-78
2022/04/27 09:26:14;;;;;;;4.00;2.03;;;;;;;;;;5008977;27;94443;-78
2022/04/27 09:28:45;;;;;;;5.18;1.98;;;;;;;;;;5053080;27;92306;-78
2022/04/27 09:31:24;;;;;;;6.55;2.03;;;;;;;;;;5052395;27;94779;-78
2022/04/27 09:33:56;;;;;;;7.47;2.30;;;;;;;;;;5053711;27;93056;-77
2022/04/27 09:36:23;;;;;;;5.13;2.30;;;;;;;;;;5052592;27;93995;-76
2022/04/27 09:38:50;;;;;;;6.55;2.10;;;;;;;;;;5037315;27;93090;-77
2022/04/27 09:41:36;;;;;;;4.85;2.10;;;;;;;;;;5036196;28;93504;-77
2022/04/27 09:44:03;;;;;;;3.47;2.25;;;;;;;;;;5032630;28;93683;-76
2022/04/27 09:46:29;;;;;;;6.40;2.05;;;;;;;;;;5032961;28;94235;-76
2022/04/27 09:49:02;;;;;;;3.53;2.30;;;;;;;;;;5034078;28;92383;-77
2022/04/27 09:51:50;;;;;;;2.15;1.88;;;;;;;;;;5032787;28;92935;-78
2022/04/27 09:54:20;;;;;;;3.30;1.90;;;;;;;;;;5032936;28;94196;-77
2022/04/27 09:56:51;;;;;;;2.13;1.60;;;;;;;;;;5030998;27;96101;-77
2022/04/27 09:59:20;;;;;;;1.90;1.77;;;;;;;;;;5033425;28;96259;-76
2022/04/27 10:01:47;;;;;;;3.83;1.95;;;;;;;;;;5032645;28;93412;-76
2022/04/27 10:04:18;;;;;;;4.97;1.63;;;;;;;;;;5035660;28;92877;-77
2022/04/27 10:06:44;;;;;;;3.20;1.80;;;;;;;;;;5032497;28;93396;-78
2022/04/27 10:09:11;;;;;;;5.25;2.22;;;;;;;;;;5033086;28;92428;-77
2022/04/27 10:12:01;;;;;;;7.20;2.13;;;;;;;;;;5033196;28;93053;-78
2022/04/27 10:14:28;;;;;;;2.25;1.88;;;;;;;;;;5035755;27;93466;-78
2022/04/27 10:16:56;;;;;;;6.88;2.67;;;;;;;;;;5037024;28;92431;-77
2022/04/27 10:19:23;;;;;;;5.60;2.50;;;;;;;;;;5037210;27;93539;-77
2022/04/27 10:21:56;;;;;;;3.70;2.17;;;;;;;;;;5035524;27;96152;-78
2022/04/27 10:24:37;;;;;;;4.82;2.38;;;;;;;;;;5053823;27;92430;-77
2022/04/27 10:27:15;;;;;;;5.43;2.95;;;;;;;;;;5060216;27;94291;-77
2022/04/27 10:29:43;;;;;;;4.93;2.30;;;;;;;;;;5056607;27;92396;-77
2022/04/27 10:32:10;;;;;;;5.10;2.03;;;;;;;;;;5056376;27;93942;-77
2022/04/27 10:34:36;;;;;;;5.13;2.05;;;;;;;;;;5056278;27;94029;-77
2022/04/27 10:37:03;;;;;;;5.05;2.30;;;;;;;;;;5056617;27;92457;-77
2022/04/27 10:39:30;;;;;;;5.63;2.13;;;;;;;;;;5056297;27;93703;-77
2022/04/27 10:42:03;;;;;;;3.88;2.50;;;;;;;;;;5058339;27;94236;-77
2022/04/27 10:44:47;;;;;;;7.85;2.47;;;;;;;;;;5052139;27;92549;-77
2022/04/27 10:47:14;;;;;;;2.55;2.08;;;;;;;;;;5034316;28;95358;-77
2022/04/27 10:49:41;;;;;;;6.45;2.15;;;;;;;;;;5038954;28;94128;-77
2022/04/27 10:52:09;;;;;;;3.65;1.98;;;;;;;;;;5037970;27;93795;-77
2022/04/27 10:54:39;;;;;;;3.47;2.30;;;;;;;;;;5055526;27;94119;-77
2022/04/27 10:57:14;;;;;;;6.38;2.60;;;;;;;;;;5056617;27;92449;-77
2022/04/27 10:59:59;;;;;;;5.85;2.60;;;;;;;;;;5056353;27;94116;-77
2022/04/27 11:02:32;;;;;;;3.13;1.98;;;;;;;;;;5056063;27;94225;-77
2022/04/27 11:05:00;;;;;;;3.78;1.90;;;;;;;;;;5056571;27;91670;-77
2022/04/27 11:07:29;;;;;;;7.75;2.40;;;;;;;;;;5055247;27;92741;-77
2022/04/27 11:10:11;;;;;;;3.40;1.92;;;;;;;;;;5055864;27;93431;-77
2022/04/27 11:12:38;;;;;;;8.55;2.35;;;;;;;;;;5057733;27;94830;-77
2022/04/27 11:15:06;;;;;;;3.17;1.98;;;;;;;;;;5036897;27;93006;-77
2022/04/27 11:17:35;;;;;;;2.90;1.90;;;;;;;;;;5055079;27;92884;-77
2022/04/27 11:20:03;;;;;;;3.53;1.92;;;;;;;;;;5054840;27;93443;-77
2022/04/27 11:22:37;;;;;;;3.55;1.95;;;;;;;;;;5044627;27;94556;-77
2022/04/27 11:25:08;;;;;;;5.63;2.15;;;;;;;;;;5034469;28;92470;-77
2022/04/27 11:27:35;;;;;;;4.90;1.95;;;;;;;;;;5035680;28;93841;-77
2022/04/27 11:30:02;;;;;;;4.35;2.42;;;;;;;;;;5035289;28;93392;-77
2022/04/27 11:32:29;;;;;;;3.08;2.03;;;;;;;;;;5038397;28;92481;-77
2022/04/27 11:34:55;;;;;;;2.92;2.20;;;;;;;;;;5035214;28;94057;-77
2022/04/27 11:37:21;;;;;;;7.05;2.50;;;;;;;;;;5032467;28;94845;-77
2022/04/27 11:39:48;;;;;;;6.72;2.30;;;;;;;;;;5034741;28;95130;-77
2022/04/27 11:42:19;;;;;;;4.40;2.65;;;;;;;;;;5034626;27;94128;-77
2022/04/27 11:44:52;;;;;;;2.60;1.83;;;;;;;;;;5034972;28;92524;-77
2022/04/27 11:47:28;;;;;;;3.58;2.45;;;;;;;;;;5034699;28;93507;-77
2022/04/27 11:49:55;;;;;;;7.00;2.50;;;;;;;;;;5034130;28;93245;-77
2022/04/27 11:52:22;;;;;;;5.10;2.33;;;;;;;;;;5041951;27;92583;-77
2022/04/27 11:54:49;;;;;;;3.17;2.05;;;;;;;;;;5039718;27;93923;-77
2022/04/27 11:57:20;;;;;;;3.88;2.53;;;;;;;;;;5033819;28;92443;-77
2022/04/27 11:59:50;;;;;;;2.58;1.98;;;;;;;;;;5035487;27;93811;-77
2022/04/27 12:02:22;;;;;;;2.50;1.70;;;;;;;;;;5033673;28;96590;-77
2022/04/27 12:04:51;;;;;;;2.40;1.83;;;;;;;;;;5034200;28;92867;-77
2022/04/27 12:07:20;;;;;;;4.18;2.55;;;;;;;;;;5034996;28;93796;-78
2022/04/27 12:10:00;;;;;;;12.45;2.20;;;;;;;;;;5043088;27;94099;-78
2022/04/27 12:12:27;;;;;;;6.00;2.70;;;;;;;;;;5053915;27;93022;-77
2022/04/27 12:14:54;;;;;;;6.38;2.15;;;;;;;;;;5055232;27;94394;-77
2022/04/27 12:17:39;;;;;;;3.95;2.72;;;;;;;;;;5057544;27;93925;-77
2022/04/27 12:20:06;;;;;;;8.55;2.75;;;;;;;;;;5045865;27;93967;-77
2022/04/27 12:22:32;;;;;;;7.20;2.42;;;;;;;;;;5033380;27;93129;-77
2022/04/27 12:25:05;;;;;;;9.90;2.58;;;;;;;;;;5033911;28;92794;-77
2022/04/27 12:27:31;;;;;;;8.77;2.78;;;;;;;;;;5032814;28;94824;-77
2022/04/27 12:30:04;;;;;;;6.78;2.30;;;;;;;;;;5034350;28;94092;-77
2022/04/27 12:32:32;;;;;;;11.07;3.28;;;;;;;;;;5033816;28;92455;-76
2022/04/27 12:37:54;;;;;;;4.22;2.25;;;;;;;;;;5035584;27;93181;-75
2022/04/27 12:40:21;;;;;;;6.05;2.65;;;;;;;;;;5057120;27;92963;-76
2022/04/27 12:42:57;;;;;;;6.15;2.92;;;;;;;;;;5054522;27;93149;-75
2022/04/27 12:45:23;;;;;;;6.22;2.30;;;;;;;;;;5047824;27;91858;-75
2022/04/27 12:47:50;;;;;;;11.73;3.17;;;;;;;;;;5034957;27;92491;-75
2022/04/27 12:50:17;;;;;;;5.80;2.63;;;;;;;;;;5034060;27;94240;-75
2022/04/27 12:52:45;;;;;;;6.57;2.72;;;;;;;;;;5031258;28;94826;-75
2022/04/27 12:55:12;;;;;;;7.72;3.42;;;;;;;;;;5033557;28;95332;-75
2022/04/27 12:57:55;;;;;;;11.80;2.90;;;;;;;;;;5033467;28;94205;-75
2022/04/27 13:00:23;;;;;;;4.65;2.30;;;;;;;;;;5033207;28;92542;-75
2022/04/27 13:02:49;;;;;;;9.00;3.08;;;;;;;;;;5037050;28;94052;-76
2022/04/27 13:05:16;;;;;;;10.25;3.03;;;;;;;;;;5034154;28;93046;-76
2022/04/27 13:07:42;;;;;;;11.07;3.03;;;;;;;;;;5032724;28;93322;-76
2022/04/27 13:12:54;;;;;;;8.68;3.13;;;;;;;;;;5034832;27;92437;-77
2022/04/27 13:15:21;;;;;;;6.35;2.75;;;;;;;;;;5053083;27;93114;-77
2022/04/27 13:17:48;;;;;;;14.13;2.90;;;;;;;;;;5049386;27;96667;-77
2022/04/27 13:20:14;;;;;;;11.23;3.25;;;;;;;;;;5040509;27;94589;-76
2022/04/27 13:22:41;;;;;;;8.27;2.83;;;;;;;;;;5040600;27;93001;-76
2022/04/27 13:25:09;;;;;;;7.70;2.50;;;;;;;;;;5040928;27;94193;-75
2022/04/27 13:27:35;;;;;;;9.32;2.40;;;;;;;;;;5036050;27;94083;-75
2022/04/27 13:30:06;;;;;;;10.02;3.25;;;;;;;;;;5036839;27;93928;-75
2022/04/27 13:32:32;;;;;;;11.75;2.97;;;;;;;;;;5032208;27;92730;-75
2022/04/27 13:34:58;;;;;;;4.75;2.60;;;;;;;;;;5036332;27;93177;-75
2022/04/27 13:37:25;;;;;;;5.57;2.80;;;;;;;;;;5029359;27;92947;-76
2022/04/27 13:39:53;;;;;;;10.93;3.13;;;;;;;;;;5030780;27;94124;-75
2022/04/27 13:42:19;;;;;;;8.73;2.08;;;;;;;;;;5031957;27;97038;-75
2022/04/27 13:44:46;;;;;;;10.35;3.25;;;;;;;;;;5042026;27;93465;-75
2022/04/27 13:47:12;;;;;;;7.68;2.80;;;;;;;;;;5042922;27;93921;-75
2022/04/27 13:49:39;;;;;;;6.32;3.08;;;;;;;;;;5056936;27;93609;-75
2022/04/27 13:52:06;;;;;;;9.35;2.72;;;;;;;;;;5039071;27;92604;-76
2022/04/27 13:54:36;;;;;;;9.30;2.58;;;;;;;;;;5051013;27;93859;-75
2022/04/27 13:57:03;;;;;;;6.20;2.53;;;;;;;;;;5048921;27;93290;-75
2022/04/27 13:59:29;;;;;;;5.28;2.17;;;;;;;;;;5049364;27;91772;-76
2022/04/27 14:01:58;;;;;;;10.10;2.95;;;;;;;;;;5037285;27;93652;-75
2022/04/27 14:04:25;;;;;;;12.25;2.50;;;;;;;;;;5037314;27;93352;-75
2022/04/27 14:06:51;;;;;;;9.68;3.38;;;;;;;;;;5035993;27;96423;-76
2022/04/27 14:09:18;;;;;;;7.80;2.80;;;;;;;;;;5036654;27;93954;-76
2022/04/27 14:14:29;;;;;;;7.70;2.80;;;;;;;;;;5036871;27;96025;-77
2022/04/27 14:19:41;;;;;;;9.00;2.45;;;;;;;;;;5032662;27;94814;-77
2022/04/27 14:22:07;;;;;;;8.00;3.65;;;;;;;;;;5034867;27;92969;-77
2022/04/27 14:24:33;;;;;;;6.50;2.35;;;;;;;;;;5048819;27;93463;-77
2022/04/27 14:27:00;;;;;;;7.15;2.38;;;;;;;;;;5056217;27;92543;-77
2022/04/27 14:29:26;;;;;;;7.88;2.88;;;;;;;;;;5041494;27;93920;-77
2022/04/27 14:31:55;;;;;;;9.88;2.67;;;;;;;;;;5037215;27;96954;-77
2022/04/27 14:34:22;;;;;;;9.07;2.90;;;;;;;;;;5035244;27;96532;-76
2022/04/27 14:36:49;;;;;;;7.78;1.98;;;;;;;;;;5029866;27;93237;-78
2022/04/27 14:39:15;;;;;;;4.32;2.20;;;;;;;;;;5031002;27;93024;-79
2022/04/27 14:41:42;;;;;;;5.10;2.22;;;;;;;;;;5034233;27;93643;-77
2022/04/27 14:44:11;;;;;;;9.95;2.40;;;;;;;;;;5033577;27;94301;-77
2022/04/27 14:46:37;;;;;;;6.60;2.58;;;;;;;;;;5041419;27;92480;-78
2022/04/27 14:49:04;;;;;;;7.60;2.05;;;;;;;;;;5039358;27;93758;-78
2022/04/27 14:51:31;;;;;;;4.88;2.30;;;;;;;;;;5035369;27;94226;-78
2022/04/27 14:53:57;;;;;;;7.35;2.13;;;;;;;;;;5042960;27;94221;-77
2022/04/27 14:56:24;;;;;;;7.25;2.70;;;;;;;;;;5073205;27;96277;-77
2022/04/27 14:58:50;;;;;;;6.40;2.47;;;;;;;;;;5036723;27;93274;-79
2022/04/27 15:01:17;;;;;;;5.68;2.13;;;;;;;;;;5038228;27;94290;-78
2022/04/27 15:03:43;;;;;;;5.97;2.40;;;;;;;;;;5036019;27;94148;-78
2022/04/27 15:06:10;;;;;;;13.05;3.58;;;;;;;;;;5032614;27;94910;-78
2022/04/27 15:08:37;;;;;;;10.05;3.13;;;;;;;;;;5037001;27;93459;-78
2022/04/27 15:11:03;;;;;;;5.93;2.42;;;;;;;;;;5038654;27;95067;-79
2022/04/27 15:13:30;;;;;;;8.27;2.40;;;;;;;;;;5037767;27;92324;-79
2022/04/27 15:15:56;;;;;;;6.32;2.65;;;;;;;;;;5033612;27;93398;-79
2022/04/27 15:18:22;;;;;;;6.00;2.25;;;;;;;;;;5031065;27;93686;-78
2022/04/27 15:23:34;;;;;;;10.05;2.63;;;;;;;;;;5034795;27;94521;-77
2022/04/27 15:26:05;;;;;;;7.85;2.35;;;;;;;;;;5036145;27;94403;-79
2022/04/27 15:28:32;;;;;;;7.03;2.53;;;;;;;;;;5039333;27;94419;-78
2022/04/27 15:30:58;;;;;;;9.25;2.72;;;;;;;;;;5036183;27;94547;-79
2022/04/27 15:33:25;;;;;;;6.57;2.22;;;;;;;;;;5030453;27;94579;-78